sensor_id;sensor_type;location;lat;lon;timestamp;pressure;altitude;pressure_sealevel;temperature;humidity
80726;BME280;70113;59.928;10.878;2024-02-26T20:19:50;99267.81;;;-1.03;100.00
80726;BME280;70113;59.928;10.878;2024-02-26T20:22:23;99256.41;;;-1.14;100.00
80726;BME280;70113;59.928;10.878;2024-02-26T20:24:49;99267.03;;;-0.97;100.00
80726;BME280;70113;59.928;10.878;2024-02-26T20:27:15;99274.59;;;-1.11;100.00
80726;BME280;70113;59.928;10.878;2024-02-26T20:29:41;99257.16;;;-1.20;100.00
80726;BME280;70113;59.928;10.878;2024-02-26T20:32:07;99259.81;;;-1.18;100.00
80726;BME280;70113;59.928;10.878;2024-02-26T20:34:33;99262.34;;;-1.21;100.00
80726;BME280;70113;59.928;10.878;2024-02-26T20:36:59;99282.28;;;-1.17;100.00
80726;BME280;70113;59.928;10.878;2024-02-26T20:39:26;99281.47;;;-1.15;100.00
80726;BME280;70113;59.928;10.878;2024-02-26T20:41:54;99276.81;;;-1.35;100.00
80726;BME280;70113;59.928;10.878;2024-02-26T20:44:20;99269.03;;;-1.34;100.00
80726;BME280;70113;59.928;10.878;2024-02-26T20:46:46;99276.13;;;-1.24;100.00
80726;BME280;70113;59.928;10.878;2024-02-26T20:49:12;99263.84;;;-1.35;100.00
80726;BME280;70113;59.928;10.878;2024-02-26T20:51:38;99277.03;;;-1.22;100.00
80726;BME280;70113;59.928;10.878;2024-02-26T20:54:05;99256.94;;;-1.35;100.00
80726;BME280;70113;59.928;10.878;2024-02-26T20:56:36;99281.56;;;-1.10;100.00
80726;BME280;70113;59.928;10.878;2024-02-26T20:59:02;99285.88;;;-1.09;100.00
80726;BME280;70113;59.928;10.878;2024-02-26T21:01:29;99289.19;;;-1.18;100.00
80726;BME280;70113;59.928;10.878;2024-02-26T21:03:55;99283.09;;;-1.20;100.00
80726;BME280;70113;59.928;10.878;2024-02-26T21:06:21;99278.88;;;-1.15;100.00
80726;BME280;70113;59.928;10.878;2024-02-26T21:08:47;99284.09;;;-1.13;100.00
80726;BME280;70113;59.928;10.878;2024-02-26T21:11:13;99289.19;;;-1.18;100.00
80726;BME280;70113;59.928;10.878;2024-02-26T21:13:38;99285.84;;;-1.12;100.00
80726;BME280;70113;59.928;10.878;2024-02-26T21:16:07;99294.56;;;-1.07;100.00
80726;BME280;70113;59.928;10.878;2024-02-26T21:18:33;99285.84;;;-1.12;100.00
80726;BME280;70113;59.928;10.878;2024-02-26T21:21:05;99292.03;;;-1.04;100.00
80726;BME280;70113;59.928;10.878;2024-02-26T21:23:30;99285.94;;;-1.06;100.00
80726;BME280;70113;59.928;10.878;2024-02-26T21:25:57;99293.94;;;-0.92;100.00
80726;BME280;70113;59.928;10.878;2024-02-26T21:28:22;99294.72;;;-0.96;100.00
80726;BME280;70113;59.928;10.878;2024-02-26T21:30:48;99291.13;;;-1.06;100.00
80726;BME280;70113;59.928;10.878;2024-02-26T21:33:14;99302.44;;;-1.01;100.00
80726;BME280;70113;59.928;10.878;2024-02-26T21:35:40;99319.84;;;-0.94;100.00
80726;BME280;70113;59.928;10.878;2024-02-26T21:38:06;99305.88;;;-1.02;100.00
80726;BME280;70113;59.928;10.878;2024-02-26T21:40:32;99334.53;;;-0.94;100.00
80726;BME280;70113;59.928;10.878;2024-02-26T21:42:59;99315.38;;;-1.04;100.00
80726;BME280;70113;59.928;10.878;2024-02-26T21:45:25;99330.97;;;-1.01;100.00
80726;BME280;70113;59.928;10.878;2024-02-26T21:47:52;99334.41;;;-1.02;100.00
80726;BME280;70113;59.928;10.878;2024-02-26T21:50:18;99336.19;;;-0.99;100.00
80726;BME280;70113;59.928;10.878;2024-02-26T21:52:44;99328.28;;;-1.07;100.00
80726;BME280;70113;59.928;10.878;2024-02-26T21:55:10;99343.19;;;-0.94;100.00
80726;BME280;70113;59.928;10.878;2024-02-26T21:57:38;99322.34;;;-1.00;100.00
80726;BME280;70113;59.928;10.878;2024-02-26T22:00:05;99343.31;;;-0.86;100.00
80726;BME280;70113;59.928;10.878;2024-02-26T22:02:32;99339.78;;;-0.89;100.00
80726;BME280;70113;59.928;10.878;2024-02-26T22:04:57;99332.81;;;-0.94;100.00
80726;BME280;70113;59.928;10.878;2024-02-26T22:07:23;99350.25;;;-0.83;100.00
80726;BME280;70113;59.928;10.878;2024-02-26T22:09:49;99353.78;;;-0.80;100.00
80726;BME280;70113;59.928;10.878;2024-02-26T22:12:16;99342.63;;;-0.74;100.00
80726;BME280;70113;59.928;10.878;2024-02-26T22:14:42;99339.13;;;-0.76;100.00
80726;BME280;70113;59.928;10.878;2024-02-26T22:17:08;99344.34;;;-0.75;100.00
80726;BME280;70113;59.928;10.878;2024-02-26T23:40:48;99354.88;;;-0.65;100.00
80726;BME280;70113;59.928;10.878;2024-02-26T23:43:14;99352.13;;;-0.76;100.00
80726;BME280;70113;59.928;10.878;2024-02-26T23:45:40;99355.81;;;-0.62;100.00
80726;BME280;70113;59.928;10.878;2024-02-26T23:48:05;99358.31;;;-0.68;100.00
80726;BME280;70113;59.928;10.878;2024-02-26T23:50:31;99352.22;;;-0.70;100.00
80726;BME280;70113;59.928;10.878;2024-02-26T23:52:59;99316.38;;;-0.93;100.00
80726;BME280;70113;59.928;10.878;2024-02-26T23:55:25;99361.00;;;-0.60;100.00
80726;BME280;70113;59.928;10.878;2024-02-26T23:57:52;99351.44;;;-0.64;100.00
